sensor_id;sensor_type;location;lat;lon;timestamp;pressure;altitude;pressure_sealevel;temperature;humidity
20612;BME280;10465;42.686;23.364;2022-10-22T00:02:22;95826.09;;;11.49;68.08
20612;BME280;10465;42.686;23.364;2022-10-22T00:04:49;95834.72;;;11.59;68.23
20612;BME280;10465;42.686;23.364;2022-10-22T00:07:16;95814.78;;;11.43;67.69
20612;BME280;10465;42.686;23.364;2022-10-22T00:09:42;95829.53;;;11.49;68.03
20612;BME280;10465;42.686;23.364;2022-10-22T00:12:07;95830.09;;;11.46;68.15
20612;BME280;10465;42.686;23.364;2022-10-22T00:14:33;95827.75;;;11.45;67.74
20612;BME280;10465;42.686;23.364;2022-10-22T00:16:58;95842.53;;;11.51;67.93
20612;BME280;10465;42.686;23.364;2022-10-22T00:19:27;95839.91;;;11.46;68.29
20612;BME280;10465;42.686;23.364;2022-10-22T00:21:53;95842.22;;;11.52;68.00
20612;BME280;10465;42.686;23.364;2022-10-22T00:24:18;95809.69;;;11.28;68.07
20612;BME280;10465;42.686;23.364;2022-10-22T00:26:44;95849.97;;;11.49;67.84
20612;BME280;10465;42.686;23.364;2022-10-22T00:29:09;95836.41;;;11.50;68.27
20612;BME280;10465;42.686;23.364;2022-10-22T00:31:35;95831.31;;;11.54;67.65
20612;BME280;10465;42.686;23.364;2022-10-22T00:34:01;95818.00;;;11.59;67.96
20612;BME280;10465;42.686;23.364;2022-10-22T00:36:26;95813.28;;;11.56;67.60
20612;BME280;10465;42.686;23.364;2022-10-22T00:38:52;95811.84;;;11.63;67.77
20612;BME280;10465;42.686;23.364;2022-10-22T00:41:17;95808.59;;;11.67;67.23
20612;BME280;10465;42.686;23.364;2022-10-22T00:43:58;95818.50;;;11.80;67.27
20612;BME280;10465;42.686;23.364;2022-10-22T00:46:24;95809.81;;;11.74;67.29
20612;BME280;10465;42.686;23.364;2022-10-22T00:48:50;95813.66;;;11.82;67.30
20612;BME280;10465;42.686;23.364;2022-10-22T00:51:17;95805.38;;;11.70;67.15
20612;BME280;10465;42.686;23.364;2022-10-22T00:53:47;95822.97;;;11.84;67.31
20612;BME280;10465;42.686;23.364;2022-10-22T00:56:13;95816.28;;;11.87;67.18
20612;BME280;10465;42.686;23.364;2022-10-22T00:58:43;95820.63;;;11.78;67.61
20612;BME280;10465;42.686;23.364;2022-10-22T01:01:13;95823.94;;;11.88;67.71
20612;BME280;10465;42.686;23.364;2022-10-22T01:03:40;95811.47;;;11.89;67.58
20612;BME280;10465;42.686;23.364;2022-10-22T01:06:06;95797.91;;;11.91;67.56
20612;BME280;10465;42.686;23.364;2022-10-22T01:08:44;95790.88;;;11.81;67.53
20612;BME280;10465;42.686;23.364;2022-10-22T01:11:28;95787.59;;;11.89;67.49
20612;BME280;10465;42.686;23.364;2022-10-22T01:14:07;95772.09;;;11.77;67.69
20612;BME280;10465;42.686;23.364;2022-10-22T01:19:40;95780.50;;;11.84;67.44
20612;BME280;10465;42.686;23.364;2022-10-22T01:22:19;95787.69;;;11.84;67.83
20612;BME280;10465;42.686;23.364;2022-10-22T01:24:56;95783.00;;;11.76;68.18
20612;BME280;10465;42.686;23.364;2022-10-22T01:30:08;95761.47;;;11.45;68.39
20612;BME280;10465;42.686;23.364;2022-10-22T01:32:42;95756.47;;;11.43;67.51
20612;BME280;10465;42.686;23.364;2022-10-22T01:35:11;95767.97;;;11.52;67.92
20612;BME280;10465;42.686;23.364;2022-10-22T01:37:45;95741.78;;;11.32;68.34
20612;BME280;10465;42.686;23.364;2022-10-22T01:40:14;95771.56;;;11.43;68.49
20612;BME280;10465;42.686;23.364;2022-10-22T01:42:40;95765.09;;;11.30;69.01
20612;BME280;10465;42.686;23.364;2022-10-22T01:45:13;95753.22;;;11.27;68.52
20612;BME280;10465;42.686;23.364;2022-10-22T01:50:37;95760.03;;;11.14;69.40
20612;BME280;10465;42.686;23.364;2022-10-22T01:53:53;95765.25;;;11.01;70.08
20612;BME280;10465;42.686;23.364;2022-10-22T01:56:26;95761.47;;;11.07;69.69
20612;BME280;10465;42.686;23.364;2022-10-22T01:59:29;95751.19;;;10.81;70.07
20612;BME280;10465;42.686;23.364;2022-10-22T02:04:45;95768.91;;;10.86;70.46
20612;BME280;10465;42.686;23.364;2022-10-22T02:07:14;95763.06;;;10.84;70.45
20612;BME280;10465;42.686;23.364;2022-10-22T02:09:43;95752.81;;;10.77;70.16
20612;BME280;10465;42.686;23.364;2022-10-22T02:12:09;95764.38;;;10.86;71.11
20612;BME280;10465;42.686;23.364;2022-10-22T02:14:38;95766.66;;;10.93;70.34
20612;BME280;10465;42.686;23.364;2022-10-22T02:17:08;95751.69;;;10.83;70.83
20612;BME280;10465;42.686;23.364;2022-10-22T02:19:40;95761.72;;;10.86;70.91
20612;BME280;10465;42.686;23.364;2022-10-22T02:22:08;95760.44;;;10.84;71.12
20612;BME280;10465;42.686;23.364;2022-10-22T02:24:34;95754.78;;;10.91;71.04
20612;BME280;10465;42.686;23.364;2022-10-22T02:27:06;95738.44;;;10.83;71.39
20612;BME280;10465;42.686;23.364;2022-10-22T02:29:40;95757.44;;;10.91;71.35
20612;BME280;10465;42.686;23.364;2022-10-22T02:32:10;95728.19;;;10.77;70.95
20612;BME280;10465;42.686;23.364;2022-10-22T02:34:37;95768.69;;;11.01;70.80
20612;BME280;10465;42.686;23.364;2022-10-22T02:37:03;95768.69;;;11.01;70.20
20612;BME280;10465;42.686;23.364;2022-10-22T02:39:30;95763.53;;;10.91;70.38
20612;BME280;10465;42.686;23.364;2022-10-22T02:41:56;95752.47;;;10.84;69.63
20612;BME280;10465;42.686;23.364;2022-10-22T02:44:22;95772.81;;;10.88;69.89
20612;BME280;10465;42.686;23.364;2022-10-22T02:46:49;95784.25;;;10.84;70.00
20612;BME280;10465;42.686;23.364;2022-10-22T02:49:15;95769.72;;;10.81;70.30
20612;BME280;10465;42.686;23.364;2022-10-22T02:51:40;95775.00;;;10.81;70.04
20612;BME280;10465;42.686;23.364;2022-10-22T02:54:06;95761.34;;;10.74;70.15
20612;BME280;10465;42.686;23.364;2022-10-22T02:56:32;95774.97;;;10.86;70.46
20612;BME280;10465;42.686;23.364;2022-10-22T02:58:57;95767.81;;;10.87;70.39
20612;BME280;10465;42.686;23.364;2022-10-22T03:01:23;95773.25;;;10.96;70.26
20612;BME280;10465;42.686;23.364;2022-10-22T03:03:48;95773.66;;;10.84;71.06
20612;BME280;10465;42.686;23.364;2022-10-22T03:06:14;95780.38;;;10.76;71.58
20612;BME280;10465;42.686;23.364;2022-10-22T03:08:40;95780.91;;;10.78;71.86
20612;BME280;10465;42.686;23.364;2022-10-22T03:11:05;95692.28;;;10.23;71.41
20612;BME280;10465;42.686;23.364;2022-10-22T03:13:31;95776.84;;;10.86;71.08
20612;BME280;10465;42.686;23.364;2022-10-22T03:15:56;95762.59;;;10.82;71.42
20612;BME280;10465;42.686;23.364;2022-10-22T03:18:22;95769.28;;;10.74;71.45
20612;BME280;10465;42.686;23.364;2022-10-22T03:20:47;95767.69;;;10.73;71.79
20612;BME280;10465;42.686;23.364;2022-10-22T03:23:14;95772.16;;;10.78;71.98
20612;BME280;10465;42.686;23.364;2022-10-22T03:25:44;95762.63;;;10.77;72.57
20612;BME280;10465;42.686;23.364;2022-10-22T03:28:12;95741.97;;;10.55;72.13
20612;BME280;10465;42.686;23.364;2022-10-22T03:30:39;95742.81;;;10.50;72.18
20612;BME280;10465;42.686;23.364;2022-10-22T03:33:05;95764.66;;;10.61;72.01
20612;BME280;10465;42.686;23.364;2022-10-22T03:35:31;95749.06;;;10.35;71.94
20612;BME280;10465;42.686;23.364;2022-10-22T03:37:59;95766.91;;;10.49;71.26
20612;BME280;10465;42.686;23.364;2022-10-22T03:40:25;95731.25;;;10.17;71.63
20612;BME280;10465;42.686;23.364;2022-10-22T03:42:51;95746.97;;;10.32;70.60
20612;BME280;10465;42.686;23.364;2022-10-22T03:45:17;95754.59;;;10.39;71.05
20612;BME280;10465;42.686;23.364;2022-10-22T03:47:42;95760.59;;;10.45;71.38
20612;BME280;10465;42.686;23.364;2022-10-22T03:50:08;95755.44;;;10.34;71.56
20612;BME280;10465;42.686;23.364;2022-10-22T03:52:35;95762.00;;;10.37;71.52
20612;BME280;10465;42.686;23.364;2022-10-22T03:55:01;95769.41;;;10.40;71.65
20612;BME280;10465;42.686;23.364;2022-10-22T03:57:26;95763.63;;;10.38;71.83
20612;BME280;10465;42.686;23.364;2022-10-22T03:59:52;95764.66;;;10.37;71.25
20612;BME280;10465;42.686;23.364;2022-10-22T04:02:17;95746.78;;;10.24;70.54
20612;BME280;10465;42.686;23.364;2022-10-22T04:04:43;95755.44;;;10.34;70.57
20612;BME280;10465;42.686;23.364;2022-10-22T04:07:08;95747.69;;;10.14;70.34
20612;BME280;10465;42.686;23.364;2022-10-22T04:09:34;95741.19;;;10.01;70.97
20612;BME280;10465;42.686;23.364;2022-10-22T04:12:00;95697.84;;;9.68;70.63
20612;BME280;10465;42.686;23.364;2022-10-22T04:14:25;95749.16;;;9.96;70.20
20612;BME280;10465;42.686;23.364;2022-10-22T04:16:51;95765.78;;;10.02;70.91
20612;BME280;10465;42.686;23.364;2022-10-22T04:19:16;95759.19;;;9.99;71.17
20612;BME280;10465;42.686;23.364;2022-10-22T04:21:42;95728.41;;;9.84;71.59
20612;BME280;10465;42.686;23.364;2022-10-22T04:24:08;95745.97;;;9.99;71.47
20612;BME280;10465;42.686;23.364;2022-10-22T04:26:34;95750.41;;;10.04;71.36
20612;BME280;10465;42.686;23.364;2022-10-22T04:28:59;95735.94;;;9.96;70.75
20612;BME280;10465;42.686;23.364;2022-10-22T04:31:25;95746.72;;;10.05;71.29
20612;BME280;10465;42.686;23.364;2022-10-22T04:33:55;95745.47;;;9.97;70.67
20612;BME280;10465;42.686;23.364;2022-10-22T04:36:22;95751.94;;;10.10;71.22
20612;BME280;10465;42.686;23.364;2022-10-22T04:38:52;95753.59;;;10.06;71.34
20612;BME280;10465;42.686;23.364;2022-10-22T04:41:21;95751.25;;;9.99;70.74
20612;BME280;10465;42.686;23.364;2022-10-22T04:43:47;95759.97;;;10.00;70.98
20612;BME280;10465;42.686;23.364;2022-10-22T04:46:14;95753.63;;;10.01;70.72
20612;BME280;10465;42.686;23.364;2022-10-22T04:48:40;95749.41;;;10.00;71.19
20612;BME280;10465;42.686;23.364;2022-10-22T04:51:08;95751.16;;;10.09;71.53
20612;BME280;10465;42.686;23.364;2022-10-22T04:53:35;95755.09;;;10.12;71.12
20612;BME280;10465;42.686;23.364;2022-10-22T04:56:11;95756.69;;;10.13;71.15
20612;BME280;10465;42.686;23.364;2022-10-22T04:58:37;95760.63;;;10.15;70.33
20612;BME280;10465;42.686;23.364;2022-10-22T05:01:17;95769.69;;;10.09;71.21
20612;BME280;10465;42.686;23.364;2022-10-22T05:03:44;95775.84;;;10.00;72.28
20612;BME280;10465;42.686;23.364;2022-10-22T05:06:10;95765.50;;;10.03;71.38
20612;BME280;10465;42.686;23.364;2022-10-22T05:08:35;95769.44;;;10.06;70.63
20612;BME280;10465;42.686;23.364;2022-10-22T05:13:36;95746.50;;;9.96;70.95
20612;BME280;10465;42.686;23.364;2022-10-22T05:16:02;95793.44;;;10.14;71.20
20612;BME280;10465;42.686;23.364;2022-10-22T05:18:28;95784.50;;;10.10;71.44
20612;BME280;10465;42.686;23.364;2022-10-22T05:20:53;95759.97;;;10.00;71.52
20612;BME280;10465;42.686;23.364;2022-10-22T05:23:19;95775.72;;;10.15;71.63
20612;BME280;10465;42.686;23.364;2022-10-22T05:25:44;95727.25;;;9.90;72.16
20612;BME280;10465;42.686;23.364;2022-10-22T05:28:10;95771.16;;;10.21;72.43
20612;BME280;10465;42.686;23.364;2022-10-22T05:30:35;95783.09;;;10.18;72.16
20612;BME280;10465;42.686;23.364;2022-10-22T05:33:01;95783.59;;;10.20;72.76
20612;BME280;10465;42.686;23.364;2022-10-22T05:35:26;95772.78;;;10.16;72.83
20612;BME280;10465;42.686;23.364;2022-10-22T05:37:51;95774.81;;;10.30;72.22
20612;BME280;10465;42.686;23.364;2022-10-22T05:40:17;95793.75;;;10.42;71.81
20612;BME280;10465;42.686;23.364;2022-10-22T05:42:42;95776.78;;;10.43;71.43
20612;BME280;10465;42.686;23.364;2022-10-22T05:45:08;95752.78;;;10.05;71.53
20612;BME280;10465;42.686;23.364;2022-10-22T05:47:33;95776.97;;;10.23;72.57
20612;BME280;10465;42.686;23.364;2022-10-22T05:49:59;95783.81;;;10.24;72.80
20612;BME280;10465;42.686;23.364;2022-10-22T05:52:25;95790.94;;;10.28;72.60
20612;BME280;10465;42.686;23.364;2022-10-22T05:54:50;95778.50;;;10.29;72.58
20612;BME280;10465;42.686;23.364;2022-10-22T05:57:16;95786.28;;;10.44;72.63
20612;BME280;10465;42.686;23.364;2022-10-22T05:59:41;95782.88;;;10.44;72.32
20612;BME280;10465;42.686;23.364;2022-10-22T06:02:08;95785.97;;;10.51;72.12
20612;BME280;10465;42.686;23.364;2022-10-22T06:04:34;95784.66;;;10.48;71.99
20612;BME280;10465;42.686;23.364;2022-10-22T06:06:59;95783.31;;;10.51;72.00
20612;BME280;10465;42.686;23.364;2022-10-22T06:09:28;95790.59;;;10.64;71.74
20612;BME280;10465;42.686;23.364;2022-10-22T06:11:55;95790.31;;;10.66;71.35
20612;BME280;10465;42.686;23.364;2022-10-22T06:14:21;95794.16;;;10.78;70.85
20612;BME280;10465;42.686;23.364;2022-10-22T06:16:48;95775.94;;;10.72;70.64
20612;BME280;10465;42.686;23.364;2022-10-22T06:19:16;95801.63;;;10.95;70.29
20612;BME280;10465;42.686;23.364;2022-10-22T06:21:42;95801.22;;;11.07;69.41
20612;BME280;10465;42.686;23.364;2022-10-22T06:24:08;95805.00;;;11.20;68.83
20612;BME280;10465;42.686;23.364;2022-10-22T06:26:34;95800.38;;;11.30;68.43
20612;BME280;10465;42.686;23.364;2022-10-22T06:29:00;95793.25;;;11.26;68.20
20612;BME280;10465;42.686;23.364;2022-10-22T06:31:26;95800.94;;;11.27;69.46
20612;BME280;10465;42.686;23.364;2022-10-22T06:33:52;95791.13;;;11.28;69.05
20612;BME280;10465;42.686;23.364;2022-10-22T06:36:22;95813.78;;;11.39;68.80
20612;BME280;10465;42.686;23.364;2022-10-22T06:38:51;95788.69;;;11.31;68.36
20612;BME280;10465;42.686;23.364;2022-10-22T06:41:17;95806.31;;;11.60;68.16
20612;BME280;10465;42.686;23.364;2022-10-22T06:43:44;95801.81;;;11.60;68.25
20612;BME280;10465;42.686;23.364;2022-10-22T06:46:12;95806.09;;;11.75;68.23
20612;BME280;10465;42.686;23.364;2022-10-22T06:48:38;95789.88;;;11.77;68.15
20612;BME280;10465;42.686;23.364;2022-10-22T06:51:09;95799.41;;;11.97;67.53
20612;BME280;10465;42.686;23.364;2022-10-22T06:53:36;95802.38;;;11.95;67.36
20612;BME280;10465;42.686;23.364;2022-10-22T06:56:07;95757.13;;;11.86;66.73
20612;BME280;10465;42.686;23.364;2022-10-22T06:58:33;95805.69;;;12.20;66.75
20612;BME280;10465;42.686;23.364;2022-10-22T07:01:09;95806.19;;;12.35;66.08
20612;BME280;10465;42.686;23.364;2022-10-22T07:03:36;95806.88;;;12.41;66.25
20612;BME280;10465;42.686;23.364;2022-10-22T07:06:03;95811.00;;;12.47;65.92
20612;BME280;10465;42.686;23.364;2022-10-22T07:08:29;95805.53;;;12.57;65.92
20612;BME280;10465;42.686;23.364;2022-10-22T07:10:55;95791.88;;;12.64;65.14
20612;BME280;10465;42.686;23.364;2022-10-22T07:13:22;95800.72;;;12.73;64.86
20612;BME280;10465;42.686;23.364;2022-10-22T07:15:52;95802.59;;;12.86;64.28
20612;BME280;10465;42.686;23.364;2022-10-22T07:18:19;95794.31;;;12.88;63.92
20612;BME280;10465;42.686;23.364;2022-10-22T07:20:46;95807.22;;;13.08;63.78
20612;BME280;10465;42.686;23.364;2022-10-22T07:23:11;95790.25;;;13.04;63.01
20612;BME280;10465;42.686;23.364;2022-10-22T07:25:37;95805.84;;;13.25;62.54
20612;BME280;10465;42.686;23.364;2022-10-22T07:28:02;95799.31;;;13.31;62.66
20612;BME280;10465;42.686;23.364;2022-10-22T07:30:27;95799.28;;;13.45;62.08
20612;BME280;10465;42.686;23.364;2022-10-22T07:32:53;95776.84;;;13.37;62.13
20612;BME280;10465;42.686;23.364;2022-10-22T07:35:18;95771.47;;;13.51;61.99
20612;BME280;10465;42.686;23.364;2022-10-22T07:37:44;95790.13;;;13.73;61.82
20612;BME280;10465;42.686;23.364;2022-10-22T07:40:10;95795.94;;;13.98;61.59
20612;BME280;10465;42.686;23.364;2022-10-22T07:42:35;95762.66;;;13.87;59.90
20612;BME280;10465;42.686;23.364;2022-10-22T07:45:01;95776.13;;;14.13;60.00
20612;BME280;10465;42.686;23.364;2022-10-22T07:47:27;95761.06;;;14.08;60.27
20612;BME280;10465;42.686;23.364;2022-10-22T07:49:52;95772.72;;;14.21;59.49
20612;BME280;10465;42.686;23.364;2022-10-22T07:52:18;95761.03;;;14.30;59.30
20612;BME280;10465;42.686;23.364;2022-10-22T07:54:43;95741.75;;;14.33;59.63
20612;BME280;10465;42.686;23.364;2022-10-22T07:57:09;95746.97;;;14.39;59.55
20612;BME280;10465;42.686;23.364;2022-10-22T07:59:34;95775.97;;;14.71;58.86
20612;BME280;10465;42.686;23.364;2022-10-22T08:02:00;95758.56;;;14.74;57.77
20612;BME280;10465;42.686;23.364;2022-10-22T08:04:25;95769.59;;;14.90;57.47
20612;BME280;10465;42.686;23.364;2022-10-22T08:06:50;95773.09;;;15.07;57.05
20612;BME280;10465;42.686;23.364;2022-10-22T08:09:16;95767.47;;;15.26;57.03
20612;BME280;10465;42.686;23.364;2022-10-22T08:11:41;95756.16;;;15.47;56.03
20612;BME280;10465;42.686;23.364;2022-10-22T08:14:07;95748.97;;;15.56;56.16
20612;BME280;10465;42.686;23.364;2022-10-22T08:16:34;95748.81;;;15.70;54.73
20612;BME280;10465;42.686;23.364;2022-10-22T08:18:59;95762.63;;;15.89;54.21
20612;BME280;10465;42.686;23.364;2022-10-22T08:21:25;95762.91;;;16.05;53.38
20612;BME280;10465;42.686;23.364;2022-10-22T08:23:51;95750.44;;;16.26;52.81
20612;BME280;10465;42.686;23.364;2022-10-22T08:26:16;95745.31;;;16.51;51.69
20612;BME280;10465;42.686;23.364;2022-10-22T08:28:42;95746.16;;;16.72;51.25
20612;BME280;10465;42.686;23.364;2022-10-22T08:31:08;95742.66;;;16.89;50.88
20612;BME280;10465;42.686;23.364;2022-10-22T08:33:33;95728.63;;;16.92;50.59
20612;BME280;10465;42.686;23.364;2022-10-22T08:35:59;95726.88;;;16.96;49.93
20612;BME280;10465;42.686;23.364;2022-10-22T08:38:24;95746.69;;;17.25;49.52
20612;BME280;10465;42.686;23.364;2022-10-22T08:40:58;95757.66;;;17.53;49.28
20612;BME280;10465;42.686;23.364;2022-10-22T08:43:40;95756.16;;;17.64;48.57
20612;BME280;10465;42.686;23.364;2022-10-22T08:48:55;95701.13;;;17.54;48.09
20612;BME280;10465;42.686;23.364;2022-10-22T08:51:28;95749.84;;;18.02;47.37
20612;BME280;10465;42.686;23.364;2022-10-22T08:54:00;95747.22;;;18.26;47.17
20612;BME280;10465;42.686;23.364;2022-10-22T08:56:30;95721.31;;;18.31;46.74
20612;BME280;10465;42.686;23.364;2022-10-22T08:59:22;95739.81;;;18.69;46.08
20612;BME280;10465;42.686;23.364;2022-10-22T09:01:52;95751.34;;;18.94;44.97
20612;BME280;10465;42.686;23.364;2022-10-22T09:04:24;95747.75;;;18.90;44.50
20612;BME280;10465;42.686;23.364;2022-10-22T09:06:54;95749.88;;;18.96;44.80
20612;BME280;10465;42.686;23.364;2022-10-22T09:09:25;95731.66;;;18.90;44.68
20612;BME280;10465;42.686;23.364;2022-10-22T09:11:53;95725.28;;;18.94;44.77
20612;BME280;10465;42.686;23.364;2022-10-22T09:14:22;95731.88;;;19.09;44.57
20612;BME280;10465;42.686;23.364;2022-10-22T09:19:57;95732.88;;;19.57;43.25
20612;BME280;10465;42.686;23.364;2022-10-22T09:22:39;95730.28;;;19.73;42.64
20612;BME280;10465;42.686;23.364;2022-10-22T09:27:47;95695.16;;;19.66;42.06
20612;BME280;10465;42.686;23.364;2022-10-22T09:30:19;95722.34;;;19.92;41.94
20612;BME280;10465;42.686;23.364;2022-10-22T09:32:44;95704.69;;;20.07;41.60
20612;BME280;10465;42.686;23.364;2022-10-22T09:35:12;95716.84;;;20.33;41.23
20612;BME280;10465;42.686;23.364;2022-10-22T09:37:48;95716.75;;;20.45;41.00
20612;BME280;10465;42.686;23.364;2022-10-22T09:40:15;95701.34;;;20.42;40.91
20612;BME280;10465;42.686;23.364;2022-10-22T09:42:40;95702.19;;;20.62;40.91
20612;BME280;10465;42.686;23.364;2022-10-22T09:45:16;95705.81;;;20.85;40.05
20612;BME280;10465;42.686;23.364;2022-10-22T09:47:42;95683.13;;;20.67;39.75
20612;BME280;10465;42.686;23.364;2022-10-22T09:50:28;95694.94;;;20.62;40.18
20612;BME280;10465;42.686;23.364;2022-10-22T09:53:11;95687.19;;;20.61;40.47
20612;BME280;10465;42.686;23.364;2022-10-22T09:55:39;95694.38;;;20.72;40.59
20612;BME280;10465;42.686;23.364;2022-10-22T09:58:10;95702.44;;;20.88;39.87
20612;BME280;10465;42.686;23.364;2022-10-22T10:00:38;95685.75;;;20.98;39.26
20612;BME280;10465;42.686;23.364;2022-10-22T10:03:04;95687.28;;;21.15;39.41
20612;BME280;10465;42.686;23.364;2022-10-22T10:05:32;95680.03;;;21.35;39.20
20612;BME280;10465;42.686;23.364;2022-10-22T10:08:00;95675.38;;;21.55;39.19
20612;BME280;10465;42.686;23.364;2022-10-22T10:10:38;95650.16;;;21.63;38.88
20612;BME280;10465;42.686;23.364;2022-10-22T10:15:57;95683.63;;;22.05;38.12
20612;BME280;10465;42.686;23.364;2022-10-22T10:21:00;95657.69;;;21.96;37.92
20612;BME280;10465;42.686;23.364;2022-10-22T10:40:36;95644.00;;;22.28;37.49
20612;BME280;10465;42.686;23.364;2022-10-22T10:42:45;95613.59;;;22.31;37.26
20612;BME280;10465;42.686;23.364;2022-10-22T10:45:17;95628.03;;;22.42;37.19
20612;BME280;10465;42.686;23.364;2022-10-22T10:59:26;95596.06;;;22.98;35.85
20612;BME280;10465;42.686;23.364;2022-10-22T11:07:30;95566.19;;;23.13;36.27
20612;BME280;10465;42.686;23.364;2022-10-22T11:10:07;95575.19;;;23.28;36.11
20612;BME280;10465;42.686;23.364;2022-10-22T11:12:39;95569.47;;;23.33;36.04
20612;BME280;10465;42.686;23.364;2022-10-22T11:17:56;95565.69;;;23.38;35.92
20612;BME280;10465;42.686;23.364;2022-10-22T11:23:15;95554.66;;;23.54;35.46
20612;BME280;10465;42.686;23.364;2022-10-22T11:25:46;95548.13;;;23.58;35.18
20612;BME280;10465;42.686;23.364;2022-10-22T11:28:26;95551.72;;;23.69;35.02
20612;BME280;10465;42.686;23.364;2022-10-22T11:31:13;95536.34;;;23.77;35.33
20612;BME280;10465;42.686;23.364;2022-10-22T11:33:55;95537.16;;;23.85;35.25
20612;BME280;10465;42.686;23.364;2022-10-22T11:36:23;95534.13;;;23.90;35.07
20612;BME280;10465;42.686;23.364;2022-10-22T11:38:50;95521.38;;;23.87;34.72
20612;BME280;10465;42.686;23.364;2022-10-22T11:41:18;95513.19;;;23.80;35.08
20612;BME280;10465;42.686;23.364;2022-10-22T11:44:09;95519.50;;;23.95;35.06
20612;BME280;10465;42.686;23.364;2022-10-22T11:46:53;95506.00;;;24.02;34.77
20612;BME280;10465;42.686;23.364;2022-10-22T11:49:27;95520.81;;;24.15;34.54
20612;BME280;10465;42.686;23.364;2022-10-22T11:52:26;95509.19;;;24.14;34.31
20612;BME280;10465;42.686;23.364;2022-10-22T11:54:56;95519.72;;;24.30;34.39
20612;BME280;10465;42.686;23.364;2022-10-22T11:57:36;95503.44;;;24.20;35.04
20612;BME280;10465;42.686;23.364;2022-10-22T12:00:54;95508.50;;;24.28;34.43
20612;BME280;10465;42.686;23.364;2022-10-22T12:03:23;95506.97;;;24.27;34.27
20612;BME280;10465;42.686;23.364;2022-10-22T12:09:04;95498.66;;;24.57;33.73
20612;BME280;10465;42.686;23.364;2022-10-22T12:11:45;95493.75;;;24.84;33.58
20612;BME280;10465;42.686;23.364;2022-10-22T12:14:23;95491.94;;;25.13;32.81
20612;BME280;10465;42.686;23.364;2022-10-22T12:16:57;95488.09;;;25.25;32.83
20612;BME280;10465;42.686;23.364;2022-10-22T12:19:29;95475.69;;;25.35;32.50
20612;BME280;10465;42.686;23.364;2022-10-22T12:22:01;95470.97;;;25.03;32.38
20612;BME280;10465;42.686;23.364;2022-10-22T12:24:41;95490.38;;;25.12;32.41
20612;BME280;10465;42.686;23.364;2022-10-22T12:29:52;95491.06;;;24.99;32.43
20612;BME280;10465;42.686;23.364;2022-10-22T12:32:18;95494.13;;;24.86;32.77
20612;BME280;10465;42.686;23.364;2022-10-22T12:34:46;95477.88;;;24.86;33.01
20612;BME280;10465;42.686;23.364;2022-10-22T12:37:14;95466.28;;;24.89;32.92
20612;BME280;10465;42.686;23.364;2022-10-22T12:39:40;95466.38;;;25.11;32.45
20612;BME280;10465;42.686;23.364;2022-10-22T12:42:09;95457.00;;;24.90;32.38
20612;BME280;10465;42.686;23.364;2022-10-22T12:44:36;95466.31;;;24.93;32.82
20612;BME280;10465;42.686;23.364;2022-10-22T12:47:02;95458.91;;;24.83;33.02
20612;BME280;10465;42.686;23.364;2022-10-22T12:49:39;95443.03;;;24.78;33.16
20612;BME280;10465;42.686;23.364;2022-10-22T12:52:12;95453.13;;;24.81;32.68
20612;BME280;10465;42.686;23.364;2022-10-22T12:54:39;95456.19;;;24.72;32.61
20612;BME280;10465;42.686;23.364;2022-10-22T12:57:09;95440.66;;;24.62;33.30
20612;BME280;10465;42.686;23.364;2022-10-22T12:59:37;95451.13;;;24.63;32.72
20612;BME280;10465;42.686;23.364;2022-10-22T13:02:30;95406.41;;;24.11;32.50
20612;BME280;10465;42.686;23.364;2022-10-22T13:05:19;95459.47;;;24.37;33.02
20612;BME280;10465;42.686;23.364;2022-10-22T13:07:53;95451.69;;;24.28;32.93
20612;BME280;10465;42.686;23.364;2022-10-22T13:10:40;95442.78;;;24.21;33.13
20612;BME280;10465;42.686;23.364;2022-10-22T13:13:06;95434.22;;;24.08;32.89
20612;BME280;10465;42.686;23.364;2022-10-22T13:15:35;95451.69;;;24.28;33.13
20612;BME280;10465;42.686;23.364;2022-10-22T13:18:02;95446.97;;;24.14;32.94
20612;BME280;10465;42.686;23.364;2022-10-22T13:20:28;95436.78;;;23.90;33.68
20612;BME280;10465;42.686;23.364;2022-10-22T13:23:00;95437.22;;;23.96;33.39
20612;BME280;10465;42.686;23.364;2022-10-22T13:25:31;95406.72;;;23.99;33.65
20612;BME280;10465;42.686;23.364;2022-10-22T13:28:01;95426.53;;;24.21;33.74
20612;BME280;10465;42.686;23.364;2022-10-22T13:30:31;95426.19;;;24.26;33.66
20612;BME280;10465;42.686;23.364;2022-10-22T13:35:25;95416.50;;;24.21;33.66
20612;BME280;10465;42.686;23.364;2022-10-22T13:37:52;95432.41;;;24.33;33.88
20612;BME280;10465;42.686;23.364;2022-10-22T13:40:18;95436.69;;;24.38;34.16
20612;BME280;10465;42.686;23.364;2022-10-22T13:42:43;95426.28;;;24.40;33.75
20612;BME280;10465;42.686;23.364;2022-10-22T13:45:09;95419.59;;;24.20;33.29
20612;BME280;10465;42.686;23.364;2022-10-22T13:47:34;95419.94;;;24.11;33.52
20612;BME280;10465;42.686;23.364;2022-10-22T13:50:02;95420.94;;;23.88;33.90
20612;BME280;10465;42.686;23.364;2022-10-22T13:52:38;95401.13;;;23.66;33.92
20612;BME280;10465;42.686;23.364;2022-10-22T13:55:14;95417.09;;;23.89;34.21
20612;BME280;10465;42.686;23.364;2022-10-22T13:57:40;95414.34;;;23.79;34.21
20612;BME280;10465;42.686;23.364;2022-10-22T14:00:07;95424.19;;;23.60;34.67
20612;BME280;10465;42.686;23.364;2022-10-22T14:02:33;95424.66;;;23.22;35.40
20612;BME280;10465;42.686;23.364;2022-10-22T14:04:59;95422.06;;;22.91;35.78
20612;BME280;10465;42.686;23.364;2022-10-22T14:07:27;95418.84;;;22.82;36.20
20612;BME280;10465;42.686;23.364;2022-10-22T14:09:53;95419.25;;;22.84;36.54
20612;BME280;10465;42.686;23.364;2022-10-22T14:12:18;95387.63;;;22.81;36.70
20612;BME280;10465;42.686;23.364;2022-10-22T14:14:44;95409.38;;;22.95;36.50
20612;BME280;10465;42.686;23.364;2022-10-22T14:17:14;95414.75;;;22.95;36.83